createdAt,value
2019-05-06T00:00:34.463Z,6.50
2019-05-06T00:03:05.075Z,6.50
2019-05-06T00:05:34.394Z,5.83
2019-05-06T00:08:03.933Z,6.00
2019-05-06T00:10:36.163Z,5.90
2019-05-06T00:13:14.252Z,5.70
2019-05-06T00:15:43.668Z,5.90
2019-05-06T00:18:13.826Z,5.80
2019-05-06T00:20:43.851Z,6.37
2019-05-06T00:23:18.841Z,5.27
2019-05-06T00:26:10.012Z,6.13
2019-05-06T00:29:00.921Z,6.03
2019-05-06T00:31:29.967Z,5.90
2019-05-06T00:33:59.142Z,5.97
2019-05-06T00:36:28.208Z,5.73
2019-05-06T00:39:00.733Z,5.20
2019-05-06T00:41:35.905Z,5.90
2019-05-06T00:44:04.057Z,6.40
2019-05-06T00:46:34.632Z,5.63
2019-05-06T00:49:03.961Z,6.13
2019-05-06T00:51:33.856Z,5.37
2019-05-06T00:54:09.655Z,6.37
2019-05-06T00:56:38.648Z,5.67
2019-05-06T00:59:07.739Z,5.90
2019-05-06T01:01:36.926Z,5.73
2019-05-06T01:04:06.061Z,5.63
2019-05-06T01:06:35.181Z,5.63
2019-05-06T01:09:07.300Z,5.63
2019-05-06T01:11:36.489Z,5.73
2019-05-06T01:14:10.337Z,5.53
2019-05-06T01:16:39.577Z,5.70
2019-05-06T01:19:08.665Z,5.57
2019-05-06T01:21:37.773Z,5.40
2019-05-06T01:24:06.926Z,5.50
2019-05-06T01:26:36.029Z,5.67
2019-05-06T01:29:05.123Z,5.90
2019-05-06T01:31:42.758Z,5.70
2019-05-06T01:34:05.026Z,5.30
2019-05-06T01:36:34.430Z,6.10
2019-05-06T01:39:36.418Z,6.37
2019-05-06T01:42:24.652Z,6.03
2019-05-06T01:44:53.971Z,6.27
2019-05-06T01:47:23.890Z,5.83
2019-05-06T01:49:53.725Z,6.30
2019-05-06T01:52:24.075Z,6.20
2019-05-06T01:54:54.241Z,6.50
2019-05-06T01:57:24.391Z,6.20
2019-05-06T01:59:54.172Z,6.23
2019-05-06T02:02:24.014Z,5.97
2019-05-06T02:04:53.993Z,6.23
2019-05-06T02:07:24.201Z,6.00
2019-05-06T02:09:54.251Z,6.53
2019-05-06T02:12:24.621Z,5.77
2019-05-06T02:14:54.287Z,6.23
2019-05-06T02:17:23.981Z,6.10
2019-05-06T02:19:54.646Z,6.30
2019-05-06T02:22:50.501Z,6.00
2019-05-06T02:25:24.447Z,5.97
2019-05-06T02:27:54.186Z,5.50
2019-05-06T02:30:38.198Z,6.17
2019-05-06T02:33:38.748Z,6.37
2019-05-06T02:36:16.295Z,5.67
2019-05-06T02:38:51.085Z,6.30
2019-05-06T02:41:16.188Z,6.37
2019-05-06T02:43:45.201Z,6.37
2019-05-06T02:46:14.274Z,6.23
2019-05-06T02:48:59.106Z,6.43
2019-05-06T02:51:29.725Z,6.53
2019-05-06T02:53:58.894Z,6.43
2019-05-06T02:56:28.029Z,6.37
2019-05-06T02:58:57.129Z,7.03
2019-05-06T03:01:26.139Z,6.20
2019-05-06T03:03:55.290Z,6.27
2019-05-06T03:06:24.378Z,6.63
2019-05-06T03:08:54.420Z,6.73
2019-05-06T03:11:24.088Z,6.97
2019-05-06T03:13:53.802Z,6.20
2019-05-06T03:16:23.865Z,6.27
2019-05-06T03:18:53.580Z,6.10
2019-05-06T03:21:37.069Z,6.20
2019-05-06T03:24:33.093Z,6.57
2019-05-06T03:27:04.592Z,6.63
2019-05-06T03:29:33.621Z,6.53
2019-05-06T03:32:07.084Z,6.37
2019-05-06T03:34:58.725Z,6.43
2019-05-06T03:37:07.400Z,6.57
2019-05-06T03:39:35.768Z,7.23
2019-05-06T03:42:05.018Z,6.30
2019-05-06T03:44:36.254Z,6.33
2019-05-06T03:47:23.594Z,7.50
2019-05-06T03:49:54.685Z,6.90
2019-05-06T03:52:25.362Z,7.20
2019-05-06T03:54:54.831Z,7.17
2019-05-06T03:57:24.582Z,7.03
2019-05-06T03:59:54.855Z,7.40
2019-05-06T04:02:24.316Z,7.13
2019-05-06T04:04:56.485Z,7.73
2019-05-06T04:07:25.806Z,8.20
2019-05-06T04:09:55.042Z,7.80
2019-05-06T04:12:25.385Z,7.37
2019-05-06T04:14:54.549Z,7.33
2019-05-06T04:17:44.117Z,7.13
2019-05-06T04:20:23.740Z,7.10
2019-05-06T04:23:06.020Z,7.13
2019-05-06T04:25:44.524Z,7.10
2019-05-06T04:28:16.802Z,7.53
2019-05-06T04:30:46.692Z,7.10
2019-05-06T04:33:17.463Z,7.40
2019-05-06T04:35:48.764Z,6.43
2019-05-06T04:38:18.371Z,6.63
2019-05-06T04:40:48.112Z,6.97
2019-05-06T04:43:17.226Z,6.87
2019-05-06T04:45:46.318Z,7.37
2019-05-06T04:48:15.397Z,7.17
2019-05-06T04:50:44.759Z,7.63
2019-05-06T04:53:14.048Z,7.00
2019-05-06T04:55:44.120Z,7.13
2019-05-06T04:58:13.866Z,6.47
2019-05-06T05:00:44.593Z,6.40
2019-05-06T05:03:14.335Z,5.87
2019-05-06T05:05:44.826Z,5.93
2019-05-06T05:08:14.661Z,6.60
2019-05-06T05:10:59.110Z,5.97
2019-05-06T05:13:46.030Z,5.83
2019-05-06T05:16:37.067Z,5.87
2019-05-06T05:19:08.700Z,6.20
2019-05-06T05:21:37.856Z,6.03
2019-05-06T05:24:07.093Z,5.27
2019-05-06T05:26:37.082Z,5.33
2019-05-06T05:29:06.202Z,5.97
2019-05-06T05:31:35.319Z,5.77
2019-05-06T05:34:04.735Z,5.33
2019-05-06T05:36:33.841Z,5.17
2019-05-06T05:39:03.487Z,5.37
2019-05-06T05:41:33.323Z,5.20
2019-05-06T05:44:24.905Z,5.13
2019-05-06T05:46:54.071Z,4.73
2019-05-06T05:49:32.477Z,5.03
2019-05-06T05:52:03.397Z,5.20
2019-05-06T05:54:33.170Z,4.90
2019-05-06T05:57:02.566Z,4.13
2019-05-06T05:59:32.914Z,3.70
2019-05-06T06:02:03.767Z,3.97
2019-05-06T06:04:33.493Z,3.80
2019-05-06T06:07:02.905Z,3.40
2019-05-06T06:09:36.085Z,3.77
2019-05-06T06:12:07.255Z,4.37
2019-05-06T06:14:56.336Z,4.20
2019-05-06T06:17:43.547Z,4.00
2019-05-06T06:20:32.702Z,4.23
2019-05-06T06:23:07.362Z,3.37
2019-05-06T06:25:36.991Z,3.60
2019-05-06T06:28:06.104Z,3.63
2019-05-06T06:30:43.508Z,3.80
2019-05-06T06:33:12.973Z,3.73
2019-05-06T06:36:07.134Z,3.63
2019-05-06T06:38:49.635Z,3.50
2019-05-06T06:41:18.723Z,4.00
2019-05-06T06:43:52.367Z,4.77
2019-05-06T06:46:22.388Z,3.63
2019-05-06T06:48:52.719Z,3.77
2019-05-06T06:51:23.379Z,3.67
2019-05-06T06:53:53.008Z,3.90
2019-05-06T06:56:38.470Z,3.20
2019-05-06T06:59:23.497Z,3.53
2019-05-06T07:02:08.461Z,3.00
2019-05-06T07:04:43.381Z,3.40
2019-05-06T07:07:13.515Z,3.30
2019-05-06T07:09:42.505Z,3.40
2019-05-06T07:12:13.162Z,3.43
2019-05-06T07:14:42.907Z,3.20
2019-05-06T07:17:13.370Z,2.97
2019-05-06T07:19:47.748Z,3.10
2019-05-06T07:22:16.821Z,3.47
2019-05-06T07:24:45.913Z,3.10
2019-05-06T07:27:19.554Z,3.13
2019-05-06T07:29:48.831Z,3.77
2019-05-06T07:32:18.058Z,3.23
2019-05-06T07:34:47.221Z,3.40
2019-05-06T07:37:17.658Z,2.77
2019-05-06T07:39:46.734Z,2.77
2019-05-06T07:42:22.724Z,2.80
2019-05-06T07:45:12.294Z,3.03
2019-05-06T07:47:53.275Z,2.70
2019-05-06T07:50:22.530Z,2.80
2019-05-06T07:53:07.359Z,2.60
2019-05-06T07:55:37.631Z,2.80
2019-05-06T07:58:06.985Z,2.60
2019-05-06T08:00:36.185Z,2.80
2019-05-06T08:03:05.736Z,2.23
2019-05-06T08:05:34.822Z,2.47
2019-05-06T08:08:04.189Z,2.33
2019-05-06T08:10:33.484Z,2.43
2019-05-06T08:13:03.012Z,2.60
2019-05-06T08:15:32.767Z,2.43
2019-05-06T08:18:03.312Z,2.47
2019-05-06T08:20:38.856Z,2.63
2019-05-06T08:23:17.844Z,3.50
2019-05-06T08:25:49.218Z,2.50
2019-05-06T08:28:18.292Z,2.30
2019-05-06T08:30:47.581Z,3.03
2019-05-06T08:33:16.672Z,2.57
2019-05-06T08:35:45.762Z,2.20
2019-05-06T08:38:14.756Z,2.40
2019-05-06T08:40:43.845Z,2.63
2019-05-06T08:43:13.226Z,2.43
2019-05-06T08:45:42.481Z,2.10
2019-05-06T08:48:13.073Z,2.40
2019-05-06T08:50:48.998Z,2.37
2019-05-06T08:53:37.622Z,1.97
2019-05-06T08:56:08.180Z,2.47
2019-05-06T08:58:47.115Z,2.27
2019-05-06T09:01:29.349Z,2.20
2019-05-06T09:04:08.301Z,2.40
2019-05-06T09:06:31.571Z,2.30
2019-05-06T09:09:02.182Z,2.07
2019-05-06T09:11:32.215Z,2.40
2019-05-06T09:14:03.360Z,2.13
2019-05-06T09:16:33.083Z,2.10
2019-05-06T09:19:04.465Z,2.17
2019-05-06T09:21:33.736Z,2.80
2019-05-06T09:24:02.977Z,2.10
2019-05-06T09:26:43.079Z,2.50
2019-05-06T09:29:20.065Z,2.47
2019-05-06T09:31:52.267Z,2.30
2019-05-06T09:34:32.487Z,2.40
2019-05-06T09:37:14.394Z,2.07
2019-05-06T09:39:45.045Z,1.87
2019-05-06T09:42:14.974Z,2.00
2019-05-06T09:44:45.279Z,1.97
2019-05-06T09:47:22.948Z,2.40
2019-05-06T09:49:53.097Z,2.10
2019-05-06T09:52:23.106Z,2.03
2019-05-06T09:55:03.285Z,1.97
2019-05-06T09:57:36.100Z,2.07
2019-05-06T10:00:06.282Z,2.23
2019-05-06T10:02:35.403Z,2.23
2019-05-06T10:05:05.758Z,2.50
2019-05-06T10:07:34.910Z,2.50
2019-05-06T10:10:04.333Z,1.83
2019-05-06T10:12:33.430Z,2.20
2019-05-06T10:15:03.253Z,4.30
2019-05-06T10:17:32.686Z,2.60
2019-05-06T10:20:02.839Z,3.80
2019-05-06T10:22:32.588Z,2.80
2019-05-06T10:25:03.726Z,2.30
2019-05-06T10:27:32.602Z,2.30
2019-05-06T10:30:05.184Z,2.50
2019-05-06T10:32:59.331Z,2.23
2019-05-06T10:35:29.710Z,2.10
2019-05-06T10:38:19.621Z,2.40
2019-05-06T10:41:02.857Z,3.10
2019-05-06T10:43:54.882Z,2.70
2019-05-06T10:46:24.018Z,2.47
2019-05-06T10:48:53.194Z,2.77
2019-05-06T10:51:39.561Z,2.50
2019-05-06T10:54:08.688Z,2.43
2019-05-06T10:56:57.380Z,2.50
2019-05-06T10:59:26.786Z,2.63
2019-05-06T11:01:58.561Z,2.30
2019-05-06T11:04:27.650Z,2.60
2019-05-06T11:06:56.739Z,2.20
2019-05-06T11:09:25.807Z,2.37
2019-05-06T11:11:54.915Z,2.33
2019-05-06T11:14:23.901Z,2.27
2019-05-06T11:16:53.064Z,2.60
2019-05-06T11:19:22.470Z,2.17
2019-05-06T11:21:53.075Z,3.00
2019-05-06T11:24:23.152Z,2.50
2019-05-06T11:26:53.252Z,2.17
2019-05-06T11:29:27.085Z,2.70
2019-05-06T11:32:23.392Z,2.63
2019-05-06T11:35:12.300Z,2.63
2019-05-06T11:37:50.051Z,2.67
2019-05-06T11:40:17.234Z,2.93
2019-05-06T11:42:46.479Z,3.43
2019-05-06T11:45:15.867Z,3.30
2019-05-06T11:47:45.029Z,2.67
2019-05-06T11:50:14.365Z,2.33
2019-05-06T11:52:43.722Z,2.60
2019-05-06T11:55:27.484Z,2.87
2019-05-06T11:57:45.454Z,2.67
2019-05-06T12:00:18.001Z,3.00
2019-05-06T12:02:48.854Z,2.87
2019-05-06T12:05:18.109Z,2.90
2019-05-06T12:08:00.957Z,2.47
2019-05-06T12:10:18.023Z,2.90
2019-05-06T12:12:47.117Z,2.57
2019-05-06T12:15:16.766Z,2.60
2019-05-06T12:17:45.862Z,2.40
2019-05-06T12:20:15.134Z,2.57
2019-05-06T12:22:44.206Z,2.80
2019-05-06T12:25:15.512Z,2.70
2019-05-06T12:27:44.842Z,3.07
2019-05-06T12:30:16.996Z,2.47
2019-05-06T12:32:53.098Z,2.70
2019-05-06T12:35:22.143Z,2.67
2019-05-06T12:37:53.922Z,3.10
2019-05-06T12:40:23.018Z,2.60
2019-05-06T12:42:56.023Z,3.00
2019-05-06T12:45:35.944Z,2.70
2019-05-06T12:48:08.501Z,2.30
2019-05-06T12:50:38.025Z,2.40
2019-05-06T12:53:07.097Z,2.70
2019-05-06T12:55:36.274Z,2.60
2019-05-06T12:58:05.449Z,2.80
2019-05-06T13:00:34.605Z,2.50
2019-05-06T13:03:04.422Z,2.40
2019-05-06T13:05:33.551Z,2.80
2019-05-06T13:08:05.350Z,2.80
2019-05-06T13:10:33.714Z,2.97
2019-05-06T13:13:04.618Z,2.60
2019-05-06T13:15:33.697Z,2.70
2019-05-06T13:18:07.148Z,3.03
2019-05-06T13:20:34.691Z,2.93
2019-05-06T13:23:17.224Z,3.00
2019-05-06T13:25:45.359Z,2.83
2019-05-06T13:28:14.942Z,3.13
2019-05-06T13:30:44.694Z,3.03
2019-05-06T13:33:38.936Z,2.73
2019-05-06T13:36:08.300Z,2.77
2019-05-06T13:38:37.485Z,2.77
2019-05-06T13:41:06.622Z,2.83
2019-05-06T13:43:43.655Z,2.93
2019-05-06T13:46:24.410Z,2.83
2019-05-06T13:49:13.384Z,2.87
2019-05-06T13:51:47.165Z,2.77
2019-05-06T13:54:16.340Z,2.93
2019-05-06T13:56:48.729Z,2.60
2019-05-06T13:59:16.337Z,2.80
2019-05-06T14:01:54.738Z,2.67
2019-05-06T14:04:24.210Z,3.03
2019-05-06T14:06:53.374Z,3.10
2019-05-06T14:09:31.438Z,2.53
2019-05-06T14:11:53.295Z,2.80
2019-05-06T14:14:22.750Z,3.07
2019-05-06T14:16:53.351Z,2.90
2019-05-06T14:19:22.702Z,2.73
2019-05-06T14:21:52.402Z,3.13
2019-05-06T14:24:22.290Z,2.90
2019-05-06T14:26:59.404Z,6.30
2019-05-06T14:29:53.007Z,3.60
2019-05-06T14:32:23.631Z,3.33
2019-05-06T14:34:52.109Z,3.10
2019-05-06T14:37:22.587Z,2.83
2019-05-06T14:39:59.111Z,2.70
2019-05-06T14:42:28.402Z,2.70
2019-05-06T14:45:02.344Z,2.83
2019-05-06T14:47:37.662Z,3.20
2019-05-06T14:50:14.429Z,2.90
2019-05-06T14:52:49.511Z,3.10
2019-05-06T14:55:38.015Z,2.77
2019-05-06T14:58:13.680Z,3.23
2019-05-06T15:01:03.667Z,3.13
2019-05-06T15:03:46.704Z,2.60
2019-05-06T15:06:23.029Z,2.77
2019-05-06T15:08:55.792Z,3.10
2019-05-06T15:11:28.307Z,2.70
2019-05-06T15:14:03.665Z,2.77
2019-05-06T15:16:52.795Z,2.50
2019-05-06T15:20:07.733Z,2.70
2019-05-06T15:22:43.599Z,2.60
2019-05-06T15:25:18.828Z,3.27
2019-05-06T15:27:53.535Z,3.00
2019-05-06T15:30:47.535Z,2.80
2019-05-06T15:33:19.328Z,3.90
2019-05-06T15:36:04.957Z,3.00
2019-05-06T15:38:41.922Z,2.60
2019-05-06T15:41:14.627Z,2.83
2019-05-06T15:43:48.145Z,3.00
2019-05-06T15:46:22.815Z,3.00
2019-05-06T15:48:56.893Z,2.40
2019-05-06T15:51:37.383Z,2.77
2019-05-06T15:54:12.732Z,2.80
2019-05-06T15:56:44.450Z,3.77
2019-05-06T15:59:18.703Z,3.30
2019-05-06T16:01:49.586Z,3.27
2019-05-06T16:04:23.731Z,2.93
2019-05-06T16:07:18.783Z,3.10
2019-05-06T16:09:54.889Z,3.17
2019-05-06T16:12:46.682Z,2.93
2019-05-06T16:15:18.432Z,2.87
2019-05-06T16:17:53.746Z,2.77
2019-05-06T16:20:33.280Z,3.07
2019-05-06T16:23:23.767Z,2.60
2019-05-06T16:25:53.000Z,2.90
2019-05-06T16:28:22.442Z,2.53
2019-05-06T16:30:53.434Z,3.43
2019-05-06T16:33:22.944Z,2.97
2019-05-06T16:35:52.434Z,2.60
2019-05-06T16:38:23.007Z,3.13
2019-05-06T16:41:02.142Z,3.27
2019-05-06T16:43:24.017Z,3.07
2019-05-06T16:45:53.427Z,2.90
2019-05-06T16:48:22.761Z,3.00
2019-05-06T16:50:51.984Z,2.80
2019-05-06T16:53:22.952Z,3.07
2019-05-06T16:56:07.561Z,3.03
2019-05-06T16:58:39.430Z,2.87
2019-05-06T17:01:14.927Z,3.00
2019-05-06T17:03:56.318Z,3.27
2019-05-06T17:06:28.354Z,2.90
2019-05-06T17:08:57.585Z,3.03
2019-05-06T17:11:30.857Z,2.97
2019-05-06T17:14:00.133Z,2.77
2019-05-06T17:16:33.547Z,3.50
2019-05-06T17:19:03.422Z,3.27
2019-05-06T17:21:33.380Z,2.90
2019-05-06T17:24:03.233Z,3.90
2019-05-06T17:26:33.886Z,3.80
2019-05-06T17:29:14.145Z,3.70
2019-05-06T17:32:02.521Z,3.60
2019-05-06T17:34:35.414Z,3.50
2019-05-06T17:37:14.320Z,3.53
2019-05-06T17:39:43.601Z,3.60
2019-05-06T17:42:14.061Z,4.13
2019-05-06T17:44:43.493Z,4.10
2019-05-06T17:47:22.819Z,4.73
2019-05-06T17:49:52.898Z,4.40
2019-05-06T17:52:22.902Z,5.00
2019-05-06T17:54:52.831Z,4.97
2019-05-06T17:57:22.497Z,4.83
2019-05-06T17:59:52.810Z,5.33
2019-05-06T18:02:24.168Z,5.37
2019-05-06T18:04:53.998Z,5.97
2019-05-06T18:07:24.952Z,5.10
2019-05-06T18:09:57.530Z,5.50
2019-05-06T18:12:28.664Z,5.30
2019-05-06T18:14:58.214Z,5.07
2019-05-06T18:17:28.270Z,5.03
2019-05-06T18:19:58.598Z,5.40
2019-05-06T18:22:28.793Z,5.90
2019-05-06T18:24:58.529Z,5.47
2019-05-06T18:27:27.642Z,5.40
2019-05-06T18:30:04.351Z,5.83
2019-05-06T18:32:32.637Z,5.50
2019-05-06T18:35:02.674Z,6.17
2019-05-06T18:37:33.880Z,5.57
2019-05-06T18:40:03.000Z,5.67
2019-05-06T18:42:33.424Z,5.80
2019-05-06T18:45:02.995Z,5.30
2019-05-06T18:47:33.648Z,6.77
2019-05-06T18:50:03.065Z,5.93
2019-05-06T18:52:32.750Z,5.87
2019-05-06T18:55:02.639Z,6.83
2019-05-06T18:57:35.321Z,7.10
2019-05-06T19:00:05.167Z,6.67
2019-05-06T19:02:34.282Z,6.80
2019-05-06T19:05:13.071Z,7.43
2019-05-06T19:07:46.570Z,6.70
2019-05-06T19:10:43.015Z,6.47
2019-05-06T19:13:12.645Z,5.87
2019-05-06T19:15:42.268Z,6.60
2019-05-06T19:18:12.921Z,6.83
2019-05-06T19:20:42.491Z,7.13
2019-05-06T19:23:13.050Z,7.47
2019-05-06T19:25:42.914Z,7.00
2019-05-06T19:28:14.179Z,6.63
2019-05-06T19:30:44.572Z,5.53
2019-05-06T19:33:13.778Z,6.30
2019-05-06T19:35:44.473Z,6.03
2019-05-06T19:38:14.012Z,5.83
2019-05-06T19:40:43.138Z,8.63
2019-05-06T19:43:14.927Z,6.33
2019-05-06T19:45:45.669Z,6.13
2019-05-06T19:48:15.819Z,6.27
2019-05-06T19:50:45.034Z,6.27
2019-05-06T19:53:14.165Z,5.23
2019-05-06T19:55:46.621Z,5.50
2019-05-06T19:58:14.154Z,5.67
2019-05-06T20:00:43.743Z,5.47
2019-05-06T20:03:12.933Z,5.47
2019-05-06T20:06:04.707Z,5.30
2019-05-06T20:08:55.354Z,6.90
2019-05-06T20:11:29.621Z,7.20
2019-05-06T20:13:58.744Z,7.87
2019-05-06T20:16:27.860Z,6.60
2019-05-06T20:18:57.259Z,6.33
2019-05-06T20:21:29.541Z,5.10
2019-05-06T20:23:58.986Z,5.50
2019-05-06T20:26:28.170Z,5.20
2019-05-06T20:28:57.404Z,5.50
2019-05-06T20:31:27.398Z,5.23
2019-05-06T20:33:56.534Z,5.50
2019-05-06T20:36:25.888Z,5.60
2019-05-06T20:38:57.170Z,5.47
2019-05-06T20:41:28.610Z,5.10
2019-05-06T20:43:57.722Z,5.83
2019-05-06T20:46:26.880Z,5.13
2019-05-06T20:48:57.131Z,6.00
2019-05-06T20:51:34.043Z,5.33
2019-05-06T20:54:03.475Z,5.33
2019-05-06T20:56:33.289Z,5.43
2019-05-06T20:59:02.561Z,4.97
2019-05-06T21:01:32.685Z,5.33
2019-05-06T21:04:03.203Z,5.53
2019-05-06T21:06:32.353Z,5.17
2019-05-06T21:09:02.112Z,5.17
2019-05-06T21:11:32.540Z,4.33
2019-05-06T21:14:02.338Z,4.10
2019-05-06T21:16:32.091Z,4.00
2019-05-06T21:19:03.212Z,4.60
2019-05-06T21:21:32.163Z,4.47
2019-05-06T21:24:02.071Z,4.53
2019-05-06T21:26:32.992Z,5.10
2019-05-06T21:29:03.248Z,4.67
2019-05-06T21:31:32.725Z,5.10
2019-05-06T21:34:01.924Z,4.67
2019-05-06T21:36:31.093Z,4.13
2019-05-06T21:39:02.006Z,4.50
2019-05-06T21:41:32.712Z,4.57
2019-05-06T21:44:02.445Z,4.70
2019-05-06T21:46:31.974Z,4.60
2019-05-06T21:49:01.287Z,4.30
2019-05-06T21:51:32.718Z,4.70
2019-05-06T21:54:02.826Z,4.63
2019-05-06T21:56:32.215Z,3.93
2019-05-06T21:59:01.972Z,4.63
2019-05-06T22:01:33.010Z,4.57
2019-05-06T22:04:03.231Z,4.40
2019-05-06T22:06:33.205Z,4.43
2019-05-06T22:09:02.818Z,4.57
2019-05-06T22:11:32.364Z,4.47
2019-05-06T22:14:01.941Z,5.07
2019-05-06T22:16:32.343Z,4.67
2019-05-06T22:19:02.694Z,5.07
2019-05-06T22:21:32.241Z,4.67
2019-05-06T22:24:04.687Z,4.37
2019-05-06T22:26:33.670Z,4.10
2019-05-06T22:29:02.780Z,4.20
2019-05-06T22:31:33.085Z,4.03
2019-05-06T22:34:02.506Z,5.03
2019-05-06T22:36:32.306Z,4.53
2019-05-06T22:39:02.483Z,4.57
2019-05-06T22:41:32.582Z,4.30
2019-05-06T22:44:13.010Z,4.40
2019-05-06T22:46:33.074Z,4.70
2019-05-06T22:49:02.626Z,4.00
2019-05-06T22:51:32.438Z,4.40
2019-05-06T22:54:02.993Z,4.33
2019-05-06T22:56:32.634Z,4.13
2019-05-06T22:59:03.341Z,4.57
2019-05-06T23:01:54.235Z,4.60
2019-05-06T23:04:24.105Z,4.40
2019-05-06T23:06:53.374Z,3.73
2019-05-06T23:09:22.877Z,4.10
2019-05-06T23:11:53.252Z,4.20
2019-05-06T23:14:31.153Z,3.80
2019-05-06T23:16:53.358Z,4.13
2019-05-06T23:19:24.418Z,4.10
2019-05-06T23:21:54.036Z,4.40
2019-05-06T23:24:23.243Z,3.90
2019-05-06T23:26:54.609Z,3.97
2019-05-06T23:29:23.285Z,3.33
2019-05-06T23:31:52.466Z,4.30
2019-05-06T23:34:23.153Z,3.60
2019-05-06T23:37:26.238Z,3.87
2019-05-06T23:40:35.198Z,4.40
2019-05-06T23:43:42.513Z,4.47
2019-05-06T23:46:47.383Z,4.20
2019-05-06T23:49:52.752Z,4.33
2019-05-06T23:52:58.113Z,3.90
2019-05-06T23:56:03.269Z,3.97
2019-05-06T23:58:32.487Z,4.33
